createdAt,value
2018-08-28T00:00:14.892Z,4.93
2018-08-28T00:02:47.585Z,5.27
2018-08-28T00:05:22.086Z,5.77
2018-08-28T00:07:55.114Z,5.60
2018-08-28T00:10:27.610Z,6.60
2018-08-28T00:13:02.843Z,5.80
2018-08-28T00:15:35.823Z,6.30
2018-08-28T00:18:09.263Z,5.30
2018-08-28T00:20:41.996Z,5.70
2018-08-28T00:23:14.588Z,5.07
2018-08-28T00:25:47.348Z,5.10
2018-08-28T00:28:20.869Z,5.23
2018-08-28T00:30:53.623Z,5.30
2018-08-28T00:33:27.044Z,5.37
2018-08-28T00:35:59.945Z,5.70
2018-08-28T00:38:33.185Z,4.17
2018-08-28T00:41:07.813Z,5.87
2018-08-28T00:43:41.893Z,7.00
2018-08-28T00:46:14.809Z,6.80
2018-08-28T00:48:48.525Z,6.20
2018-08-28T00:51:21.340Z,6.20
2018-08-28T00:53:54.024Z,6.53
2018-08-28T00:56:29.326Z,5.63
2018-08-28T00:59:04.061Z,5.93
2018-08-28T01:01:36.561Z,6.20
2018-08-28T01:04:09.141Z,6.73
2018-08-28T01:06:41.716Z,7.20
2018-08-28T01:09:14.321Z,6.20
2018-08-28T01:11:47.102Z,6.43
2018-08-28T01:14:19.693Z,6.00
2018-08-28T01:16:52.345Z,6.20
2018-08-28T01:19:26.360Z,6.47
2018-08-28T01:21:59.845Z,6.87
2018-08-28T01:24:33.865Z,6.67
2018-08-28T01:27:06.628Z,6.83
2018-08-28T01:29:40.207Z,6.40
2018-08-28T01:32:12.772Z,6.43
2018-08-28T01:34:45.666Z,7.07
2018-08-28T01:37:18.248Z,6.13
2018-08-28T01:39:50.741Z,7.28
2018-08-28T01:42:25.097Z,7.32
2018-08-28T01:44:57.606Z,6.50
2018-08-28T01:47:31.475Z,7.40
2018-08-28T01:50:09.661Z,6.80
2018-08-28T01:52:42.532Z,6.70
2018-08-28T01:55:24.538Z,6.35
2018-08-28T01:57:57.448Z,6.70
2018-08-28T02:00:40.608Z,6.00
2018-08-28T02:03:13.537Z,6.80
2018-08-28T02:05:46.439Z,6.50
2018-08-28T02:08:19.157Z,7.20
2018-08-28T02:10:52.835Z,5.67
2018-08-28T02:13:25.958Z,7.47
2018-08-28T02:15:58.369Z,7.20
2018-08-28T02:18:30.969Z,7.13
2018-08-28T02:21:09.780Z,6.93
2018-08-28T02:23:42.488Z,6.07
2018-08-28T02:26:15.828Z,7.40
2018-08-28T02:28:48.456Z,7.62
2018-08-28T02:31:31.590Z,8.60
2018-08-28T02:34:07.779Z,7.20
2018-08-28T02:39:57.849Z,7.40
2018-08-28T02:42:30.979Z,6.93
2018-08-28T02:45:05.481Z,8.03
2018-08-28T02:47:42.239Z,7.90
2018-08-28T02:50:15.311Z,6.70
2018-08-28T02:52:47.757Z,6.20
2018-08-28T02:58:31.037Z,7.17
2018-08-28T03:01:03.828Z,8.00
2018-08-28T03:03:36.582Z,6.50
2018-08-28T03:06:09.188Z,9.27
2018-08-28T03:08:43.445Z,7.20
2018-08-28T03:11:15.855Z,6.33
2018-08-28T03:13:48.385Z,7.47
2018-08-28T03:16:40.881Z,7.57
2018-08-28T03:19:13.347Z,9.20
2018-08-28T03:21:46.214Z,7.43
2018-08-28T03:24:20.376Z,7.97
2018-08-28T03:26:52.969Z,8.13
2018-08-28T03:29:25.540Z,8.00
2018-08-28T03:32:14.890Z,8.30
2018-08-28T03:34:57.753Z,8.37
2018-08-28T03:37:30.299Z,9.77
2018-08-28T03:40:30.977Z,10.10
2018-08-28T03:43:14.358Z,10.70
2018-08-28T03:45:46.937Z,6.77
2018-08-28T03:48:19.999Z,7.80
2018-08-28T03:54:03.634Z,10.83
2018-08-28T03:56:37.572Z,10.40
2018-08-28T03:59:12.376Z,8.40
2018-08-28T04:01:45.227Z,8.47
2018-08-28T04:04:20.337Z,9.10
2018-08-28T04:10:04.240Z,14.20
2018-08-28T04:12:37.080Z,13.13
2018-08-28T04:15:23.517Z,13.47
2018-08-28T04:18:18.135Z,12.00
2018-08-28T04:24:00.693Z,8.03
2018-08-28T04:26:44.997Z,10.80
2018-08-28T04:29:18.752Z,13.95
2018-08-28T04:31:51.588Z,11.50
2018-08-28T04:34:24.117Z,11.37
2018-08-28T04:36:56.961Z,11.23
2018-08-28T04:39:29.476Z,9.43
2018-08-28T04:42:02.229Z,10.23
2018-08-28T04:44:35.081Z,9.67
2018-08-28T04:47:07.916Z,12.53
2018-08-28T04:49:40.340Z,12.80
2018-08-28T04:52:13.169Z,12.23
2018-08-28T04:54:46.808Z,12.80
2018-08-28T04:57:19.418Z,10.35
2018-08-28T04:59:52.361Z,8.70
2018-08-28T05:02:33.001Z,10.03
2018-08-28T05:05:09.061Z,10.90
2018-08-28T05:07:42.551Z,13.70
2018-08-28T05:10:15.141Z,12.88
2018-08-28T05:12:48.589Z,11.93
2018-08-28T05:15:21.588Z,10.73
2018-08-28T05:17:54.357Z,10.47
2018-08-28T05:20:28.501Z,10.97
2018-08-28T05:23:04.001Z,11.13
2018-08-28T05:25:36.553Z,14.80
2018-08-28T05:28:09.498Z,13.60
2018-08-28T05:30:42.347Z,12.70
2018-08-28T05:33:15.107Z,12.90
2018-08-28T05:35:48.995Z,15.10
2018-08-28T05:38:22.524Z,15.80
2018-08-28T05:40:56.148Z,14.77
2018-08-28T05:43:28.784Z,14.20
2018-08-28T05:46:03.070Z,13.38
2018-08-28T05:48:36.885Z,11.73
2018-08-28T05:51:09.649Z,13.57
2018-08-28T05:53:42.712Z,12.47
2018-08-28T05:56:15.442Z,12.10
2018-08-28T05:58:49.089Z,12.17
2018-08-28T06:01:24.307Z,13.40
2018-08-28T06:03:57.352Z,14.00
2018-08-28T06:06:30.148Z,13.83
2018-08-28T06:09:05.212Z,13.47
2018-08-28T06:11:38.692Z,11.90
2018-08-28T06:14:13.368Z,12.10
2018-08-28T06:16:48.564Z,9.80
2018-08-28T06:19:23.239Z,10.40
2018-08-28T06:21:58.708Z,10.43
2018-08-28T06:24:31.600Z,9.60
2018-08-28T06:27:05.608Z,9.37
2018-08-28T06:29:38.396Z,10.47
2018-08-28T06:32:12.423Z,9.33
2018-08-28T06:34:45.296Z,8.50
2018-08-28T06:37:19.014Z,10.00
2018-08-28T06:39:52.352Z,8.20
2018-08-28T06:42:25.013Z,8.63
2018-08-28T06:44:58.089Z,8.47
2018-08-28T06:47:34.889Z,8.70
2018-08-28T06:50:09.290Z,8.50
2018-08-28T06:52:42.033Z,7.67
2018-08-28T06:55:16.696Z,7.80
2018-08-28T06:57:49.232Z,8.43
2018-08-28T07:00:23.632Z,8.07
2018-08-28T07:02:57.283Z,7.97
2018-08-28T07:05:31.358Z,8.53
2018-08-28T07:08:04.603Z,8.40
2018-08-28T07:10:37.302Z,7.97
2018-08-28T07:13:10.649Z,7.97
2018-08-28T07:15:44.626Z,8.30
2018-08-28T07:18:17.253Z,8.80
2018-08-28T07:27:32.805Z,7.50
2018-08-28T07:30:07.901Z,8.23
2018-08-28T07:32:42.753Z,7.27
2018-08-28T07:35:16.194Z,8.27
2018-08-28T07:37:48.666Z,9.00
2018-08-28T07:40:22.553Z,8.13
2018-08-28T07:42:55.046Z,7.70
2018-08-28T07:45:27.927Z,7.53
2018-08-28T07:48:02.988Z,7.37
2018-08-28T07:50:35.442Z,7.07
2018-08-28T07:53:09.777Z,7.40
2018-08-28T07:55:46.840Z,6.80
2018-08-28T07:58:19.836Z,7.80
2018-08-28T08:00:53.197Z,6.47
2018-08-28T08:03:25.974Z,5.90
2018-08-28T08:06:01.075Z,7.03
2018-08-28T08:08:34.973Z,6.00
2018-08-28T08:11:17.272Z,6.07
2018-08-28T08:13:51.977Z,7.23
2018-08-28T08:16:24.657Z,6.97
2018-08-28T08:18:57.693Z,6.00
2018-08-28T08:21:30.197Z,6.07
2018-08-28T08:24:05.042Z,6.68
2018-08-28T08:26:38.510Z,5.50
2018-08-28T08:29:11.737Z,6.35
2018-08-28T08:31:48.176Z,6.43
2018-08-28T08:34:21.197Z,6.10
2018-08-28T08:36:55.249Z,6.23
2018-08-28T08:39:30.896Z,6.50
2018-08-28T08:42:05.474Z,6.03
2018-08-28T08:44:39.278Z,5.57
2018-08-28T08:47:14.638Z,5.33
2018-08-28T08:49:47.540Z,6.37
2018-08-28T08:52:20.438Z,5.80
2018-08-28T08:54:53.108Z,5.93
2018-08-28T08:57:26.245Z,6.40
2018-08-28T09:00:00.009Z,6.37
2018-08-28T09:02:40.474Z,5.27
2018-08-28T09:05:14.454Z,6.13
2018-08-28T09:07:53.972Z,6.47
2018-08-28T09:10:32.350Z,6.70
2018-08-28T09:13:05.567Z,6.80
2018-08-28T09:15:43.984Z,6.30
2018-08-28T09:18:20.153Z,6.00
2018-08-28T09:20:54.845Z,6.03
2018-08-28T09:23:34.986Z,6.23
2018-08-28T09:26:08.741Z,6.90
2018-08-28T09:28:50.689Z,6.90
2018-08-28T09:31:30.278Z,5.90
2018-08-28T09:34:05.731Z,6.30
2018-08-28T09:36:40.669Z,6.90
2018-08-28T09:39:16.384Z,7.13
2018-08-28T09:41:49.865Z,7.10
2018-08-28T09:44:26.214Z,6.10
2018-08-28T09:47:00.369Z,7.47
2018-08-28T09:49:33.853Z,7.67
2018-08-28T09:52:13.253Z,6.93
2018-08-28T09:54:46.527Z,6.77
2018-08-28T09:57:19.021Z,6.70
2018-08-28T09:59:53.533Z,6.30
2018-08-28T10:02:34.105Z,7.27
2018-08-28T10:05:07.979Z,6.60
2018-08-28T10:07:42.973Z,6.27
2018-08-28T10:10:15.722Z,6.23
2018-08-28T10:12:48.425Z,6.33
2018-08-28T10:15:21.530Z,6.37
2018-08-28T10:17:55.240Z,6.93
2018-08-28T10:20:28.453Z,6.78
2018-08-28T10:23:03.463Z,5.90
2018-08-28T10:25:38.649Z,6.23
2018-08-28T10:28:13.328Z,6.20
2018-08-28T10:30:47.809Z,6.73
2018-08-28T10:33:22.727Z,6.90
2018-08-28T10:35:58.714Z,6.40
2018-08-28T10:38:34.583Z,6.70
2018-08-28T10:41:08.750Z,6.20
2018-08-28T10:43:43.735Z,5.83
2018-08-28T10:46:20.937Z,6.10
2018-08-28T10:48:54.294Z,6.20
2018-08-28T10:51:31.160Z,6.27
2018-08-28T10:54:03.741Z,6.87
2018-08-28T10:56:39.184Z,6.50
2018-08-28T10:59:14.708Z,6.43
2018-08-28T11:01:55.501Z,7.00
2018-08-28T11:04:28.019Z,6.77
2018-08-28T11:07:03.230Z,6.27
2018-08-28T11:09:37.850Z,5.60
2018-08-28T11:12:11.181Z,6.90
2018-08-28T11:14:46.980Z,6.77
2018-08-28T11:17:21.085Z,7.10
2018-08-28T11:19:56.329Z,6.10
2018-08-28T11:22:30.575Z,6.87
2018-08-28T11:25:05.749Z,6.33
2018-08-28T11:27:39.198Z,6.57
2018-08-28T11:30:15.116Z,7.27
2018-08-28T11:32:55.242Z,7.17
2018-08-28T11:35:29.446Z,6.13
2018-08-28T11:38:02.614Z,6.57
2018-08-28T11:40:39.411Z,6.43
2018-08-28T11:43:16.614Z,6.67
2018-08-28T11:45:53.989Z,7.30
2018-08-28T11:48:28.462Z,6.80
2018-08-28T12:45:39.314Z,6.93
2018-08-28T12:48:14.082Z,7.53
2018-08-28T12:50:50.759Z,7.17
2018-08-28T12:53:31.383Z,6.63
2018-08-28T12:56:05.186Z,7.60
2018-08-28T12:58:41.632Z,7.50
2018-08-28T13:02:10.258Z,8.27
2018-08-28T13:05:27.929Z,7.77
2018-08-28T13:08:14.322Z,7.55
2018-08-28T13:10:50.409Z,7.77
2018-08-28T13:13:29.757Z,6.87
2018-08-28T13:16:03.945Z,7.57
2018-08-28T13:18:38.597Z,9.13
2018-08-28T13:21:13.482Z,8.00
2018-08-28T13:23:49.241Z,7.27
2018-08-28T13:26:24.058Z,8.18
2018-08-28T13:42:28.285Z,7.97
2018-08-28T13:45:08.046Z,6.97
2018-08-28T13:58:09.238Z,7.33
2018-08-28T14:00:46.382Z,7.73
2018-08-28T14:03:21.614Z,7.20
2018-08-28T14:05:56.913Z,10.97
2018-08-28T14:08:31.445Z,7.20
2018-08-28T14:11:05.456Z,7.73
2018-08-28T14:13:59.069Z,6.87
2018-08-28T14:16:44.957Z,7.35
2018-08-28T14:19:21.152Z,7.27
2018-08-28T14:21:53.578Z,6.40
2018-08-28T14:24:29.359Z,7.20
2018-08-28T14:27:03.558Z,6.50
2018-08-28T14:29:37.023Z,6.43
2018-08-28T14:32:12.225Z,7.30
2018-08-28T14:34:48.233Z,6.33
2018-08-28T14:37:37.988Z,7.20
2018-08-28T14:40:11.662Z,6.87
2018-08-28T14:42:51.778Z,6.63
2018-08-28T14:45:30.773Z,6.77
2018-08-28T14:48:04.906Z,6.90
2018-08-28T14:50:41.319Z,7.27
2018-08-28T14:53:17.290Z,6.63
2018-08-28T14:55:53.041Z,7.55
2018-08-28T14:58:29.621Z,5.87
2018-08-28T15:01:03.626Z,8.10
2018-08-28T15:03:43.088Z,7.03
2018-08-28T15:06:18.021Z,7.23
2018-08-28T15:08:53.782Z,6.33
2018-08-28T15:11:31.666Z,6.68
2018-08-28T15:14:05.117Z,6.83
2018-08-28T15:16:39.465Z,6.70
2018-08-28T15:19:12.720Z,6.37
2018-08-28T15:21:46.490Z,5.60
2018-08-28T15:24:22.514Z,5.73
2018-08-28T15:26:55.237Z,7.22
2018-08-28T15:29:31.195Z,6.65
2018-08-28T15:32:04.852Z,6.40
2018-08-28T15:34:41.201Z,6.37
2018-08-28T15:37:15.872Z,5.83
2018-08-28T15:39:49.424Z,5.33
2018-08-28T15:42:23.104Z,5.00
2018-08-28T15:44:58.153Z,5.30
2018-08-28T15:47:31.782Z,4.90
2018-08-28T15:50:07.929Z,4.80
2018-08-28T15:52:41.574Z,5.00
2018-08-28T15:55:19.847Z,5.50
2018-08-28T15:57:58.523Z,4.93
2018-08-28T16:00:33.850Z,5.43
2018-08-28T16:03:13.776Z,5.43
2018-08-28T16:05:50.755Z,5.20
2018-08-28T16:08:30.572Z,5.00
2018-08-28T16:11:04.028Z,5.10
2018-08-28T16:13:40.485Z,5.47
2018-08-28T16:16:15.782Z,5.90
2018-08-28T16:18:50.069Z,5.53
2018-08-28T16:21:37.700Z,5.60
2018-08-28T16:24:13.772Z,5.10
2018-08-28T16:26:46.340Z,5.10
2018-08-28T16:29:20.378Z,5.33
2018-08-28T16:31:53.993Z,4.60
2018-08-28T16:34:27.645Z,5.03
2018-08-28T16:37:01.848Z,6.00
2018-08-28T16:39:36.743Z,4.73
2018-08-28T16:42:10.312Z,5.70
2018-08-28T16:44:57.813Z,5.28
2018-08-28T16:47:31.969Z,5.30
2018-08-28T16:50:04.669Z,5.00
2018-08-28T16:52:39.574Z,5.90
2018-08-28T16:55:16.373Z,5.13
2018-08-28T16:57:51.132Z,5.07
2018-08-28T17:00:29.854Z,5.33
2018-08-28T17:03:04.233Z,5.00
2018-08-28T17:05:39.042Z,5.40
2018-08-28T17:08:21.107Z,5.20
2018-08-28T17:10:57.926Z,5.20
2018-08-28T17:13:53.241Z,5.40
2018-08-28T17:16:39.986Z,4.87
2018-08-28T17:19:15.038Z,5.40
2018-08-28T17:21:59.590Z,5.50
2018-08-28T17:27:10.422Z,5.63
2018-08-28T17:29:47.520Z,5.50
2018-08-28T17:32:20.414Z,5.00
2018-08-28T17:34:53.841Z,5.80
2018-08-28T17:37:34.066Z,5.57
2018-08-28T17:40:08.607Z,5.80
2018-08-28T17:42:43.772Z,5.53
2018-08-28T17:45:18.793Z,6.15
2018-08-28T17:47:53.822Z,5.80
2018-08-28T17:50:31.296Z,5.50
2018-08-28T17:53:05.381Z,5.87
2018-08-28T17:55:39.093Z,5.50
2018-08-28T17:58:18.627Z,5.13
2018-08-28T18:00:53.345Z,4.97
2018-08-28T18:03:29.968Z,6.47
2018-08-28T18:06:02.635Z,5.50
2018-08-28T18:08:37.273Z,5.43
2018-08-28T18:11:15.290Z,5.70
2018-08-28T18:13:49.727Z,6.00
2018-08-28T18:16:24.212Z,5.00
2018-08-28T18:19:02.394Z,6.37
2018-08-28T18:21:35.522Z,5.97
2018-08-28T18:24:11.107Z,5.83
2018-08-28T18:26:45.164Z,6.13
2018-08-28T18:29:23.000Z,6.65
2018-08-28T18:31:59.464Z,5.47
2018-08-28T18:34:37.989Z,5.00
2018-08-28T18:37:10.982Z,5.90
2018-08-28T18:39:45.061Z,5.63
2018-08-28T18:42:19.759Z,5.40
2018-08-28T18:44:54.648Z,4.93
2018-08-28T18:47:31.698Z,5.17
2018-08-28T18:50:06.393Z,4.93
2018-08-28T18:52:41.028Z,5.50
2018-08-28T18:55:14.450Z,5.67
2018-08-28T18:57:47.297Z,4.90
2018-08-28T19:00:22.709Z,6.00
2018-08-28T19:03:00.954Z,6.10
2018-08-28T19:05:35.118Z,6.85
2018-08-28T19:08:11.265Z,6.53
2018-08-28T19:10:49.353Z,6.87
2018-08-28T19:13:23.726Z,7.72
2018-08-28T19:16:01.159Z,6.33
2018-08-28T19:18:39.217Z,6.87
2018-08-28T19:21:13.208Z,11.60
2018-08-28T19:23:51.429Z,7.13
2018-08-28T19:26:32.438Z,7.27
2018-08-28T19:29:07.918Z,7.93
2018-08-28T19:31:49.926Z,6.87
2018-08-28T19:34:28.596Z,6.03
2018-08-28T19:37:09.893Z,6.57
2018-08-28T19:39:44.167Z,7.57
2018-08-28T19:42:18.645Z,7.68
2018-08-28T19:44:53.940Z,6.67
2018-08-28T19:47:28.281Z,7.07
2018-08-28T19:50:01.623Z,9.30
2018-08-28T19:52:36.769Z,7.50
2018-08-28T19:55:14.287Z,7.37
2018-08-28T19:57:52.070Z,7.73
2018-08-28T20:00:27.625Z,8.03
2018-08-28T20:03:03.231Z,8.20
2018-08-28T20:05:41.428Z,8.27
2018-08-28T20:08:17.728Z,7.13
2018-08-28T20:10:57.216Z,7.60
2018-08-28T20:13:32.612Z,8.13
2018-08-28T20:16:14.962Z,8.17
2018-08-28T20:18:50.245Z,7.70
2018-08-28T20:21:24.215Z,7.50
2018-08-28T20:23:57.176Z,6.97
2018-08-28T20:26:32.835Z,7.53
2018-08-28T20:29:08.067Z,7.07
2018-08-28T20:31:44.983Z,7.77
2018-08-28T20:34:21.243Z,7.37
2018-08-28T20:36:55.071Z,7.33
2018-08-28T20:39:44.911Z,7.17
2018-08-28T20:42:26.463Z,7.68
2018-08-28T20:45:05.475Z,7.07
2018-08-28T20:47:40.962Z,6.97
2018-08-28T20:50:22.741Z,6.93
2018-08-28T20:52:55.810Z,6.70
2018-08-28T20:55:29.800Z,6.53
2018-08-28T20:58:07.630Z,7.27
2018-08-28T21:00:41.631Z,6.50
2018-08-28T21:03:14.496Z,6.82
2018-08-28T21:05:48.660Z,6.83
2018-08-28T21:08:22.607Z,6.93
2018-08-28T21:10:56.981Z,7.10
2018-08-28T21:13:30.467Z,6.77
2018-08-28T21:16:03.356Z,6.57
2018-08-28T21:18:35.865Z,7.33
2018-08-28T21:21:09.969Z,6.10
2018-08-28T21:23:45.460Z,6.50
2018-08-28T21:26:17.941Z,6.87
2018-08-28T21:28:53.505Z,7.30
2018-08-28T21:31:27.047Z,7.00
2018-08-28T21:34:00.313Z,7.13
2018-08-28T21:36:42.786Z,7.33
2018-08-28T21:39:19.833Z,8.07
2018-08-28T21:41:55.540Z,7.70
2018-08-28T21:44:30.436Z,7.20
2018-08-28T21:47:04.624Z,7.53
2018-08-28T21:49:37.657Z,7.50
2018-08-28T21:52:12.522Z,7.07
2018-08-28T21:54:46.746Z,7.37
2018-08-28T21:57:21.805Z,6.50
2018-08-28T21:59:59.360Z,6.70
2018-08-28T22:02:37.206Z,6.53
2018-08-28T22:05:10.147Z,6.17
2018-08-28T22:07:45.115Z,7.10
2018-08-28T22:10:19.312Z,6.70
2018-08-28T22:12:53.489Z,6.73
2018-08-28T22:15:26.978Z,6.13
2018-08-28T22:18:03.424Z,6.45
2018-08-28T22:20:36.253Z,5.67
2018-08-28T22:23:10.626Z,5.70
2018-08-28T22:25:44.308Z,6.00
2018-08-28T22:28:18.028Z,5.70
2018-08-28T22:30:53.453Z,6.13
2018-08-28T22:33:26.802Z,5.83
2018-08-28T22:35:59.699Z,6.70
2018-08-28T22:38:32.695Z,6.50
2018-08-28T22:41:05.560Z,6.20
2018-08-28T22:43:38.904Z,5.83
2018-08-28T22:46:12.284Z,6.40
2018-08-28T22:48:46.570Z,6.30
2018-08-28T22:51:20.298Z,6.27
2018-08-28T22:53:53.254Z,6.30
2018-08-28T22:56:26.313Z,7.30
2018-08-28T22:58:58.865Z,7.28
2018-08-28T23:01:33.445Z,6.90
2018-08-28T23:04:07.471Z,6.87
2018-08-28T23:06:50.142Z,6.50
2018-08-28T23:09:24.181Z,7.33
2018-08-28T23:11:59.140Z,6.37
2018-08-28T23:14:32.993Z,6.13
2018-08-28T23:17:10.571Z,6.43
2018-08-28T23:19:45.783Z,6.00
2018-08-28T23:22:19.583Z,6.20
2018-08-28T23:24:53.736Z,6.07
2018-08-28T23:27:26.741Z,5.73
2018-08-28T23:30:00.351Z,6.35
2018-08-28T23:32:34.960Z,5.83
2018-08-28T23:35:08.160Z,5.50
2018-08-28T23:37:40.745Z,5.87
2018-08-28T23:40:17.707Z,5.87
2018-08-28T23:42:52.020Z,5.80
2018-08-28T23:45:26.477Z,6.50
2018-08-28T23:47:59.396Z,5.63
2018-08-28T23:50:32.723Z,6.43
2018-08-28T23:53:05.196Z,5.63
2018-08-28T23:55:39.048Z,6.87
2018-08-28T23:58:11.607Z,6.63
